Time;durP1;ratioP1;P1;durP2;ratioP2;P2;SDS_P1;SDS_P2;PMS_P1;PMS_P2;Temp;Humidity;BMP_temperature;BMP_pressure;BME280_temperature;BME280_humidity;BME280_pressure;Samples;Min_cycle;Max_cycle;Signal;HPM_P1;HPM_P2
2023/05/25 00:01:34;;;;;;;;;;;;;;;21.23;67.49;101039.53;4994893;28;20153;-84
2023/05/25 00:04:04;;;;;;;;;;;;;;;21.20;67.47;101043.44;5015264;28;20015;-83
2023/05/25 00:06:36;;;;;;;;;;;;;;;21.25;67.40;101053.66;5019774;28;19928;-84
2023/05/25 00:09:05;;;;;;;;;;;;;;;21.18;67.39;101047.38;4977242;28;19924;-83
2023/05/25 00:11:32;;;;;;;;;;;;;;;20.79;67.62;100994.72;5006316;28;20233;-83
2023/05/25 00:14:03;;;;;;;;;;;;;;;21.17;67.62;101045.72;4997556;28;19925;-84
2023/05/25 00:16:40;;;;;;;;;;;;;;;21.19;67.28;101054.44;5021761;28;19931;-83
2023/05/25 00:19:22;;;;;;;;;;;;;;;21.08;67.73;101053.94;4977692;28;19956;-83
2023/05/25 00:21:49;;;;;;;;;;;;;;;21.20;67.11;101051.53;5004136;28;19925;-83
2023/05/25 00:24:16;;;;;;;;;;;;;;;21.07;67.48;101063.06;5005254;28;20301;-85
2023/05/25 00:26:55;;;;;;;;;;;;;;;21.00;67.54;101058.66;5000582;28;19924;-83
2023/05/25 00:29:41;;;;;;;;;;;;;;;20.92;68.19;101062.28;5006813;28;19940;-84
2023/05/25 00:32:08;;;;;;;;;;;;;;;20.97;67.98;101057.19;4998550;28;19924;-84
2023/05/25 00:34:43;;;;;;;;;;;;;;;21.00;67.89;101062.19;5002197;28;19960;-83
2023/05/25 00:37:15;;;;;;;;;;;;;;;21.10;67.50;101062.69;4994096;28;20113;-84
2023/05/25 00:39:45;;;;;;;;;;;;;;;20.98;67.85;101064.22;5002855;28;19924;-84
2023/05/25 00:42:14;;;;;;;;;;;;;;;20.82;69.02;101057.22;5002548;28;20308;-84
2023/05/25 00:44:49;;;;;;;;;;;;;;;20.88;68.67;101064.56;5002183;28;20087;-84
2023/05/25 00:47:16;;;;;;;;;;;;;;;20.85;68.76;101067.66;5013877;28;20007;-85
2023/05/25 00:49:43;;;;;;;;;;;;;;;20.89;68.76;101065.38;5021566;28;20286;-83
2023/05/25 00:52:11;;;;;;;;;;;;;;;20.83;68.85;101077.78;5016735;28;20068;-84
2023/05/25 00:54:38;;;;;;;;;;;;;;;20.87;68.49;101078.22;5000671;28;20723;-84
2023/05/25 00:57:08;;;;;;;;;;;;;;;20.39;69.92;101023.94;4980930;28;19982;-85
2023/05/25 00:59:47;;;;;;;;;;;;;;;20.69;70.15;101081.38;5011466;28;20256;-85
2023/05/25 01:02:19;;;;;;;;;;;;;;;20.73;69.72;101076.41;4993062;28;20064;-84
2023/05/25 01:04:58;;;;;;;;;;;;;;;20.85;69.25;101080.28;4977209;28;19971;-85
2023/05/25 01:07:26;;;;;;;;;;;;;;;20.87;69.12;101083.63;4991548;28;19979;-82
2023/05/25 01:09:57;;;;;;;;;;;;;;;20.76;69.61;101079.59;5007774;28;19935;-85
2023/05/25 01:12:28;;;;;;;;;;;;;;;20.41;69.82;101035.38;4987194;28;19979;-82
2023/05/25 01:14:55;;;;;;;;;;;;;;;20.69;69.97;101087.59;4995068;28;19932;-82
2023/05/25 01:17:22;;;;;;;;;;;;;;;20.63;70.43;101085.69;5013939;28;20452;-82
2023/05/25 01:19:48;;;;;;;;;;;;;;;20.87;69.10;101086.31;4977088;28;20159;-83
2023/05/25 01:22:39;;;;;;;;;;;;;;;20.85;68.23;101091.06;4992320;28;19924;-83
2023/05/25 01:25:13;;;;;;;;;;;;;;;20.73;68.71;101098.00;5004381;28;20167;-83
2023/05/25 01:27:45;;;;;;;;;;;;;;;20.58;69.21;101093.50;5001650;28;20111;-83
2023/05/25 01:30:15;;;;;;;;;;;;;;;20.73;67.95;101087.22;5005946;28;19932;-83
2023/05/25 01:32:42;;;;;;;;;;;;;;;20.51;68.63;101084.47;5022553;28;19978;-83
2023/05/25 01:35:15;;;;;;;;;;;;;;;20.18;68.62;101047.16;5003938;28;19928;-83
2023/05/25 01:37:50;;;;;;;;;;;;;;;20.62;66.99;101086.69;4997175;28;20392;-81
2023/05/25 01:40:18;;;;;;;;;;;;;;;20.59;67.08;101097.03;5021837;28;20226;-82
2023/05/25 01:42:48;;;;;;;;;;;;;;;20.59;66.81;101091.66;5003941;28;20027;-81
2023/05/25 01:45:18;;;;;;;;;;;;;;;20.62;66.10;101096.66;4995933;28;19924;-81
2023/05/25 01:47:48;;;;;;;;;;;;;;;20.62;66.15;101097.47;5010030;28;19952;-81
2023/05/25 01:50:28;;;;;;;;;;;;;;;20.53;66.31;101092.38;5005396;28;20394;-82
2023/05/25 01:52:58;;;;;;;;;;;;;;;20.51;66.38;101095.28;5000418;28;20255;-80
2023/05/25 01:55:27;;;;;;;;;;;;;;;20.18;66.66;101051.72;4992684;28;20007;-82
2023/05/25 01:57:56;;;;;;;;;;;;;;;20.57;66.43;101105.31;4988433;28;19933;-81
2023/05/25 02:00:30;;;;;;;;;;;;;;;20.58;66.58;101098.06;5000882;28;19930;-81
2023/05/25 02:02:56;;;;;;;;;;;;;;;20.59;66.67;101095.19;4977282;28;20382;-80
2023/05/25 02:05:26;;;;;;;;;;;;;;;20.50;67.23;101093.59;5030739;28;19951;-80
2023/05/25 02:07:53;;;;;;;;;;;;;;;20.62;66.77;101102.88;4995819;28;20176;-81
2023/05/25 02:10:20;;;;;;;;;;;;;;;20.48;67.06;101103.72;5001840;28;20489;-81
2023/05/25 02:12:46;;;;;;;;;;;;;;;20.41;67.41;101100.97;4999076;28;20345;-80
2023/05/25 02:15:14;;;;;;;;;;;;;;;20.34;67.76;101115.38;5005765;28;19925;-82
2023/05/25 02:17:43;;;;;;;;;;;;;;;20.13;67.19;101084.63;4996346;28;19925;-81
2023/05/25 02:20:10;;;;;;;;;;;;;;;20.31;67.30;101110.34;4993146;28;19928;-81
2023/05/25 02:22:37;;;;;;;;;;;;;;;20.19;68.07;101118.91;5000818;28;20325;-81
2023/05/25 02:25:04;;;;;;;;;;;;;;;20.30;67.59;101109.53;5002343;28;20412;-81
2023/05/25 02:27:34;;;;;;;;;;;;;;;20.35;67.19;101111.66;4986458;28;20566;-81
2023/05/25 02:30:01;;;;;;;;;;;;;;;20.35;66.82;101114.34;5007409;28;20128;-81
2023/05/25 02:32:32;;;;;;;;;;;;;;;20.30;66.78;101114.09;5026955;28;19967;-82
2023/05/25 02:35:03;;;;;;;;;;;;;;;20.27;67.01;101118.00;4991544;28;20570;-81
2023/05/25 02:37:30;;;;;;;;;;;;;;;20.20;67.62;101120.59;5003693;28;19936;-81
2023/05/25 02:39:57;;;;;;;;;;;;;;;20.20;67.55;101127.84;4981492;28;19925;-81
2023/05/25 02:42:26;;;;;;;;;;;;;;;20.17;67.76;101137.16;5003602;28;19975;-82
2023/05/25 02:44:54;;;;;;;;;;;;;;;20.28;66.90;101127.75;4993387;28;19924;-82
2023/05/25 02:47:20;;;;;;;;;;;;;;;20.26;66.92;101119.84;5022763;28;20166;-82
2023/05/25 02:49:47;;;;;;;;;;;;;;;20.35;66.22;101123.28;4986609;28;20400;-81
2023/05/25 02:52:16;;;;;;;;;;;;;;;20.22;66.81;101133.88;4979456;28;19929;-81
2023/05/25 02:54:47;;;;;;;;;;;;;;;20.14;66.98;101126.72;4966489;28;19933;-81
2023/05/25 02:57:13;;;;;;;;;;;;;;;20.11;67.47;101127.09;4983552;28;19925;-81
2023/05/25 02:59:40;;;;;;;;;;;;;;;20.13;67.03;101133.16;4998335;28;19939;-82
2023/05/25 03:02:06;;;;;;;;;;;;;;;20.26;66.34;101130.63;4995129;28;19935;-81
2023/05/25 03:04:36;;;;;;;;;;;;;;;20.23;66.26;101135.56;5016614;28;19951;-82
2023/05/25 03:07:03;;;;;;;;;;;;;;;20.15;66.77;101133.81;5028178;28;19952;-82
2023/05/25 03:09:30;;;;;;;;;;;;;;;20.19;66.20;101143.16;4995479;28;20018;-82
2023/05/25 03:11:58;;;;;;;;;;;;;;;19.81;66.39;101097.47;5020199;28;20498;-82
2023/05/25 03:14:30;;;;;;;;;;;;;;;20.28;65.48;101144.75;5012243;28;19925;-82
2023/05/25 03:16:57;;;;;;;;;;;;;;;20.26;65.68;101152.19;5004967;28;19928;-82
2023/05/25 03:19:24;;;;;;;;;;;;;;;20.21;65.79;101151.91;5004466;28;20004;-82
2023/05/25 03:21:52;;;;;;;;;;;;;;;19.78;66.29;101105.06;5015123;28;19925;-81
2023/05/25 03:24:19;;;;;;;;;;;;;;;20.13;65.99;101161.97;5003022;28;20107;-83
2023/05/25 03:26:45;;;;;;;;;;;;;;;20.10;66.01;101159.63;5020209;28;20338;-81
2023/05/25 03:29:15;;;;;;;;;;;;;;;19.58;66.02;101077.81;5012589;28;19972;-82
2023/05/25 03:31:41;;;;;;;;;;;;;;;20.06;66.21;101169.94;5002043;28;20212;-81
2023/05/25 03:34:08;;;;;;;;;;;;;;;20.10;66.34;101170.41;5016478;28;20047;-82
2023/05/25 03:36:36;;;;;;;;;;;;;;;20.09;66.46;101168.75;5021426;28;20377;-81
2023/05/25 03:39:04;;;;;;;;;;;;;;;20.08;66.37;101178.69;4984935;28;20399;-82
2023/05/25 03:41:31;;;;;;;;;;;;;;;20.13;65.57;101176.28;5005419;28;20045;-82
2023/05/25 03:43:57;;;;;;;;;;;;;;;20.18;65.83;101184.63;4987630;28;20292;-81
2023/05/25 03:46:24;;;;;;;;;;;;;;;20.19;65.90;101180.91;4985216;28;19929;-82
2023/05/25 03:48:51;;;;;;;;;;;;;;;20.17;66.14;101184.81;5012096;28;20363;-82
2023/05/25 03:51:19;;;;;;;;;;;;;;;20.18;66.09;101176.56;4996066;28;19931;-82
2023/05/25 03:53:48;;;;;;;;;;;;;;;20.22;65.80;101185.94;4991447;28;19995;-82
2023/05/25 03:56:17;;;;;;;;;;;;;;;19.83;66.39;101135.84;4980929;28;20326;-81
2023/05/25 03:58:48;;;;;;;;;;;;;;;20.21;65.91;101188.81;4983227;28;19925;-82
2023/05/25 04:01:15;;;;;;;;;;;;;;;20.16;66.28;101183.16;5011845;28;20093;-82
2023/05/25 04:03:42;;;;;;;;;;;;;;;20.20;65.89;101198.78;5014336;28;20351;-82
2023/05/25 04:06:08;;;;;;;;;;;;;;;20.19;65.75;101190.84;4990584;28;20330;-83
2023/05/25 04:08:35;;;;;;;;;;;;;;;20.25;66.03;101199.06;4998953;28;19928;-83
2023/05/25 04:11:02;;;;;;;;;;;;;;;20.33;65.18;101199.97;5014409;28;19925;-81
2023/05/25 04:13:34;;;;;;;;;;;;;;;20.33;65.30;101199.97;4989181;28;19939;-82
2023/05/25 04:16:01;;;;;;;;;;;;;;;20.31;65.21;101205.56;4991250;28;20412;-81
2023/05/25 04:18:27;;;;;;;;;;;;;;;20.23;65.37;101201.09;5014556;28;20539;-81
2023/05/25 04:20:57;;;;;;;;;;;;;;;20.21;65.89;101211.22;4997246;28;19925;-82
2023/05/25 04:23:28;;;;;;;;;;;;;;;19.95;65.66;101165.00;5014193;28;20269;-80
2023/05/25 04:25:55;;;;;;;;;;;;;;;20.31;65.33;101218.19;5020237;28;20255;-81
2023/05/25 04:28:26;;;;;;;;;;;;;;;19.75;65.54;101143.97;5008388;28;19924;-80
2023/05/25 04:30:57;;;;;;;;;;;;;;;20.22;65.76;101231.78;5015998;28;19976;-81
2023/05/25 04:33:28;;;;;;;;;;;;;;;20.27;65.46;101223.13;5003355;28;20171;-80
2023/05/25 04:35:57;;;;;;;;;;;;;;;20.24;65.76;101229.75;5021334;28;19924;-80
2023/05/25 04:38:26;;;;;;;;;;;;;;;20.27;65.50;101233.91;4998790;28;20378;-81
2023/05/25 04:40:53;;;;;;;;;;;;;;;20.30;65.59;101244.34;5016107;28;19929;-80
2023/05/25 04:43:21;;;;;;;;;;;;;;;19.93;66.14;101204.75;4998327;28;19925;-82
2023/05/25 04:45:47;;;;;;;;;;;;;;;20.25;66.24;101257.53;5013330;28;19925;-81
2023/05/25 04:48:14;;;;;;;;;;;;;;;20.28;65.81;101257.97;4988081;28;20045;-81
2023/05/25 04:50:43;;;;;;;;;;;;;;;20.26;65.86;101265.41;5013872;28;20200;-82
2023/05/25 04:53:10;;;;;;;;;;;;;;;20.35;65.25;101268.03;4990010;28;20023;-81
2023/05/25 04:55:36;;;;;;;;;;;;;;;20.30;65.58;101275.84;4999984;28;20107;-81
2023/05/25 04:58:04;;;;;;;;;;;;;;;20.21;66.09;101272.38;4995116;28;19932;-80
2023/05/25 05:00:33;;;;;;;;;;;;;;;20.18;66.12;101281.69;5016576;28;19932;-81
2023/05/25 05:02:59;;;;;;;;;;;;;;;20.19;66.10;101282.50;5015216;28;19925;-79
2023/05/25 05:05:26;;;;;;;;;;;;;;;20.22;65.98;101285.69;5019870;28;20559;-80
2023/05/25 05:07:53;;;;;;;;;;;;;;;20.18;66.41;101280.84;5019050;28;19925;-79
2023/05/25 05:10:21;;;;;;;;;;;;;;;19.85;66.55;101241.56;4997456;28;19986;-81
2023/05/25 05:12:48;;;;;;;;;;;;;;;20.17;66.70;101293.50;5018212;28;19932;-81
2023/05/25 05:15:15;;;;;;;;;;;;;;;20.21;66.26;101293.97;5013213;28;20295;-81
2023/05/25 05:17:41;;;;;;;;;;;;;;;20.30;65.91;101305.50;4998186;28;20043;-80
2023/05/25 05:20:08;;;;;;;;;;;;;;;20.32;65.87;101298.91;5012501;28;19932;-80
2023/05/25 05:22:38;;;;;;;;;;;;;;;19.98;65.71;101251.72;5017597;28;20367;-81
2023/05/25 05:25:06;;;;;;;;;;;;;;;20.31;66.04;101301.78;5016421;28;19925;-81
2023/05/25 05:27:33;;;;;;;;;;;;;;;20.33;65.94;101307.84;5006375;28;20279;-81
2023/05/25 05:30:02;;;;;;;;;;;;;;;20.32;65.94;101315.09;5002813;28;20203;-81
2023/05/25 05:32:29;;;;;;;;;;;;;;;20.24;66.72;101321.41;5020893;28;20366;-80
2023/05/25 05:34:56;;;;;;;;;;;;;;;20.22;67.08;101317.19;5001930;28;20375;-81
2023/05/25 05:37:22;;;;;;;;;;;;;;;20.24;67.03;101320.53;5016197;28;20198;-85
2023/05/25 05:39:51;;;;;;;;;;;;;;;20.30;66.96;101324.38;5017758;28;19955;-84
2023/05/25 05:42:18;;;;;;;;;;;;;;;20.31;66.97;101334.13;5010743;28;20374;-83
2023/05/25 05:44:44;;;;;;;;;;;;;;;20.28;67.07;101325.38;5016648;28;20306;-83
2023/05/25 05:47:11;;;;;;;;;;;;;;;20.27;67.33;101329.13;5013040;28;20484;-84
2023/05/25 05:49:38;;;;;;;;;;;;;;;20.31;67.50;101326.03;4993216;28;19943;-83
2023/05/25 05:52:05;;;;;;;;;;;;;;;20.00;67.33;101278.47;4970297;28;19935;-83
2023/05/25 05:54:32;;;;;;;;;;;;;;;20.41;66.94;101337.41;4976057;28;20310;-83
2023/05/25 05:56:58;;;;;;;;;;;;;;;20.35;67.41;101338.16;4987768;28;20385;-83
2023/05/25 05:59:25;;;;;;;;;;;;;;;20.30;68.36;101340.56;5014573;28;20263;-83
2023/05/25 06:01:52;;;;;;;;;;;;;;;20.33;68.00;101346.41;5013048;28;20696;-83
2023/05/25 06:04:19;;;;;;;;;;;;;;;20.25;68.84;101344.63;5016134;28;20283;-83
2023/05/25 06:06:46;;;;;;;;;;;;;;;20.26;68.75;101351.69;5014669;28;19932;-84
2023/05/25 06:09:13;;;;;;;;;;;;;;;20.33;68.75;101356.38;5013096;28;19925;-84
2023/05/25 06:11:40;;;;;;;;;;;;;;;20.35;68.62;101357.03;5018413;28;19928;-84
2023/05/25 06:14:06;;;;;;;;;;;;;;;20.37;68.91;101360.38;5008173;28;20160;-83
2023/05/25 06:16:33;;;;;;;;;;;;;;;20.40;68.52;101368.09;5023805;28;19935;-82
2023/05/25 06:19:00;;;;;;;;;;;;;;;20.35;68.69;101370.50;5015094;28;19970;-84
2023/05/25 06:21:27;;;;;;;;;;;;;;;20.39;68.54;101371.81;5025765;28;20274;-83
2023/05/25 06:23:58;;;;;;;;;;;;;;;20.14;68.23;101319.97;5003230;28;20256;-83
2023/05/25 06:26:25;;;;;;;;;;;;;;;20.44;68.95;101369.41;5012086;28;19964;-83
2023/05/25 06:28:56;;;;;;;;;;;;;;;20.43;69.55;101371.25;5022159;28;19928;-83
2023/05/25 06:31:35;;;;;;;;;;;;;;;20.43;69.76;101367.72;4988448;28;20346;-84
2023/05/25 06:34:07;;;;;;;;;;;;;;;20.53;69.65;101364.78;4965283;28;19925;-83
2023/05/25 06:36:38;;;;;;;;;;;;;;;20.61;69.23;101372.84;4988043;28;19925;-84
2023/05/25 06:39:07;;;;;;;;;;;;;;;20.56;69.45;101373.38;4995551;28;19974;-84
2023/05/25 06:41:36;;;;;;;;;;;;;;;20.56;69.75;101373.38;4992415;28;20866;-85
2023/05/25 06:44:06;;;;;;;;;;;;;;;20.59;70.28;101382.97;4995257;28;19929;-85
2023/05/25 06:46:32;;;;;;;;;;;;;;;20.65;69.74;101376.81;5001932;28;19945;-85
2023/05/25 06:49:03;;;;;;;;;;;;;;;20.68;69.82;101381.84;4990941;28;20033;-85
2023/05/25 06:51:30;;;;;;;;;;;;;;;20.67;69.65;101389.09;5003920;28;20445;-85
2023/05/25 06:53:56;;;;;;;;;;;;;;;20.69;69.23;101391.63;4990622;28;19929;-85
2023/05/25 06:56:23;;;;;;;;;;;;;;;20.74;69.07;101391.91;4993662;28;20012;-84
2023/05/25 06:58:50;;;;;;;;;;;;;;;20.75;69.61;101398.13;5010147;28;19925;-85
2023/05/25 07:01:16;;;;;;;;;;;;;;;20.70;69.58;101390.59;5015655;28;19932;-85
2023/05/25 07:03:43;;;;;;;;;;;;;;;20.79;69.53;101389.50;5023033;28;19925;-86
2023/05/25 07:06:11;;;;;;;;;;;;;;;20.83;69.70;101395.38;5001684;28;20401;-86
2023/05/25 07:08:38;;;;;;;;;;;;;;;20.88;69.41;101392.94;4993186;28;19929;-85
2023/05/25 07:11:07;;;;;;;;;;;;;;;20.84;70.00;101397.88;4999891;28;20015;-85
2023/05/25 07:13:34;;;;;;;;;;;;;;;20.87;70.09;101402.88;5002578;28;20394;-84
2023/05/25 07:16:04;;;;;;;;;;;;;;;20.88;69.90;101401.06;5008219;28;19941;-86
2023/05/25 07:18:33;;;;;;;;;;;;;;;20.86;70.53;101406.63;4993369;28;20389;-84
2023/05/25 07:21:00;;;;;;;;;;;;;;;20.90;70.05;101401.72;5006069;28;19924;-83
2023/05/25 07:23:27;;;;;;;;;;;;;;;20.86;70.12;101411.19;4981608;28;20271;-83
2023/05/25 07:25:53;;;;;;;;;;;;;;;20.86;70.44;101411.19;5001359;28;19925;-85
2023/05/25 07:28:20;;;;;;;;;;;;;;;20.93;69.96;101412.13;5002189;28;20330;-85
2023/05/25 07:30:46;;;;;;;;;;;;;;;20.91;70.13;101414.16;4992512;28;20110;-85
2023/05/25 07:33:16;;;;;;;;;;;;;;;20.89;70.26;101411.63;4981693;28;19925;-85
2023/05/25 07:35:54;;;;;;;;;;;;;;;20.55;70.36;101366.28;4972485;28;19932;-85
2023/05/25 07:38:31;;;;;;;;;;;;;;;20.85;71.23;101425.69;4967114;28;20167;-81
2023/05/25 07:40:58;;;;;;;;;;;;;;;20.94;70.74;101424.59;5012627;28;20413;-81
2023/05/25 07:43:24;;;;;;;;;;;;;;;20.96;70.42;101422.53;4993158;28;20389;-81
2023/05/25 07:45:52;;;;;;;;;;;;;;;20.90;70.97;101428.69;4999681;28;19925;-79
2023/05/25 07:48:18;;;;;;;;;;;;;;;20.95;70.67;101431.69;4992543;28;19925;-80
2023/05/25 07:50:45;;;;;;;;;;;;;;;21.05;70.41;101432.25;4984971;28;20300;-82
2023/05/25 07:53:12;;;;;;;;;;;;;;;21.06;70.35;101431.19;4994674;28;19931;-82
2023/05/25 07:55:41;;;;;;;;;;;;;;;20.74;70.68;101396.47;4994347;28;20204;-84
2023/05/25 07:58:10;;;;;;;;;;;;;;;21.02;71.03;101440.72;5027187;28;20306;-83
2023/05/25 08:00:37;;;;;;;;;;;;;;;21.06;70.65;101443.88;5000915;28;19973;-85
2023/05/25 08:03:03;;;;;;;;;;;;;;;21.05;70.63;101443.03;5000194;28;19933;-83
2023/05/25 08:05:34;;;;;;;;;;;;;;;21.09;70.59;101444.34;4976096;28;20117;-85
2023/05/25 08:08:09;;;;;;;;;;;;;;;21.10;70.45;101454.13;4948889;28;20318;-85
2023/05/25 08:10:47;;;;;;;;;;;;;;;21.17;70.68;101450.69;4965672;28;20369;-85
2023/05/25 08:13:22;;;;;;;;;;;;;;;21.26;70.53;101454.94;4973306;28;20126;-85
2023/05/25 08:15:48;;;;;;;;;;;;;;;21.39;70.59;101457.03;4990098;28;19929;-85
2023/05/25 08:18:18;;;;;;;;;;;;;;;21.48;69.96;101458.59;4993947;28;19929;-85
2023/05/25 08:20:53;;;;;;;;;;;;;;;21.50;70.30;101457.38;4971362;28;20023;-85
2023/05/25 08:23:20;;;;;;;;;;;;;;;21.51;70.08;101461.78;5003148;28;20108;-85
2023/05/25 08:25:53;;;;;;;;;;;;;;;21.59;70.46;101454.59;4993917;28;19932;-85
2023/05/25 08:28:22;;;;;;;;;;;;;;;21.62;70.49;101463.16;4998877;28;19995;-85
2023/05/25 08:30:54;;;;;;;;;;;;;;;21.67;70.65;101473.41;4998132;28;20162;-87
2023/05/25 08:33:21;;;;;;;;;;;;;;;21.71;70.65;101467.44;4976401;28;19932;-85
2023/05/25 08:35:55;;;;;;;;;;;;;;;21.80;70.66;101472.72;4963931;28;19925;-85
2023/05/25 08:38:32;;;;;;;;;;;;;;;21.50;70.62;101419.56;4966334;28;20194;-83
2023/05/25 08:41:05;;;;;;;;;;;;;;;21.85;70.73;101481.13;4988227;28;20016;-84
2023/05/25 08:43:32;;;;;;;;;;;;;;;21.92;70.62;101488.28;4990344;28;20048;-85
2023/05/25 08:46:07;;;;;;;;;;;;;;;22.01;70.62;101480.03;4981769;28;19984;-84
2023/05/25 08:48:37;;;;;;;;;;;;;;;22.06;70.52;101480.31;4984117;28;20371;-85
2023/05/25 08:51:08;;;;;;;;;;;;;;;22.29;70.40;101477.47;4963627;28;20206;-84
2023/05/25 08:53:41;;;;;;;;;;;;;;;22.06;69.62;101426.22;4998485;28;20426;-84
2023/05/25 08:56:20;;;;;;;;;;;;;;;22.39;69.14;101469.88;4971752;28;19929;-84
2023/05/25 08:59:03;;;;;;;;;;;;;;;22.52;67.90;101466.44;4999654;28;20381;-84
2023/05/25 09:01:37;;;;;;;;;;;;;;;22.46;68.07;101472.66;4990061;28;20334;-84
2023/05/25 09:04:04;;;;;;;;;;;;;;;22.40;67.94;101480.53;5015492;28;19928;-84
2023/05/25 09:06:32;;;;;;;;;;;;;;;22.38;67.65;101487.16;5016644;28;19991;-84
2023/05/25 09:09:04;;;;;;;;;;;;;;;22.35;68.22;101482.09;4968166;28;20205;-83
2023/05/25 09:11:32;;;;;;;;;;;;;;;22.37;67.81;101489.00;5005004;28;19962;-86
2023/05/25 09:14:06;;;;;;;;;;;;;;;22.40;67.48;101488.63;5032736;28;20015;-86
2023/05/25 09:16:37;;;;;;;;;;;;;;;22.43;67.59;101489.25;4963810;28;20286;-86
2023/05/25 09:19:10;;;;;;;;;;;;;;;22.48;67.56;101486.84;5002104;28;20406;-85
2023/05/25 09:21:36;;;;;;;;;;;;;;;22.50;67.88;101492.84;4994819;28;20416;-85
2023/05/25 09:24:03;;;;;;;;;;;;;;;22.55;67.65;101493.13;5007639;28;20513;-86
2023/05/25 09:26:31;;;;;;;;;;;;;;;22.58;67.21;101493.59;5015478;28;20027;-86
2023/05/25 09:29:01;;;;;;;;;;;;;;;22.67;67.12;101491.59;4983618;28;19924;-85
2023/05/25 09:31:29;;;;;;;;;;;;;;;22.37;66.97;101451.13;5003384;28;20415;-85
2023/05/25 09:33:58;;;;;;;;;;;;;;;22.66;67.54;101494.47;5016191;28;20011;-85
2023/05/25 09:36:26;;;;;;;;;;;;;;;22.61;68.92;101489.66;4990680;28;20148;-86
2023/05/25 09:38:55;;;;;;;;;;;;;;;22.26;71.14;101457.06;5001840;28;20009;-86
2023/05/25 09:41:26;;;;;;;;;;;;;;;22.53;72.37;101503.31;5001819;28;19924;-84
2023/05/25 09:43:53;;;;;;;;;;;;;;;22.49;71.24;101504.72;5006259;28;19968;-87
2023/05/25 09:46:37;;;;;;;;;;;;;;;22.50;72.20;101507.25;5015101;28;20355;-86
2023/05/25 09:49:07;;;;;;;;;;;;;;;22.61;73.43;101504.00;5029988;28;20309;-86
2023/05/25 09:51:37;;;;;;;;;;;;;;;22.76;73.07;101501.22;4985635;28;20197;-86
2023/05/25 09:54:07;;;;;;;;;;;;;;;22.88;72.50;101504.25;4983777;28;19924;-85
2023/05/25 09:56:34;;;;;;;;;;;;;;;23.00;69.54;101501.88;5016998;28;20340;-86
2023/05/25 09:59:01;;;;;;;;;;;;;;;23.17;70.42;101503.25;5009535;28;19925;-86
2023/05/25 10:01:27;;;;;;;;;;;;;;;23.22;70.33;101505.34;5009628;28;19935;-86
2023/05/25 10:04:01;;;;;;;;;;;;;;;23.35;67.78;101502.75;4991608;28;19971;-86
2023/05/25 10:06:32;;;;;;;;;;;;;;;23.37;67.82;101507.94;4996454;28;20164;-84
2023/05/25 10:08:59;;;;;;;;;;;;;;;23.37;69.14;101491.69;4982150;28;20046;-85
2023/05/25 10:11:26;;;;;;;;;;;;;;;23.33;67.36;101495.84;4996170;28;20025;-86
2023/05/25 10:13:54;;;;;;;;;;;;;;;23.34;67.82;101501.06;5000412;28;19972;-86
2023/05/25 10:16:25;;;;;;;;;;;;;;;23.58;67.59;101510.56;4996959;28;19932;-85
2023/05/25 10:19:07;;;;;;;;;;;;;;;23.58;68.70;101502.44;5011317;28;20451;-86
2023/05/25 10:21:38;;;;;;;;;;;;;;;23.90;68.19;101505.53;5027558;28;20172;-83
2023/05/25 10:24:08;;;;;;;;;;;;;;;24.12;63.87;101500.81;5029051;28;19929;-86
2023/05/25 10:26:39;;;;;;;;;;;;;;;24.43;63.20;101499.44;5010236;28;19932;-84
2023/05/25 10:29:09;;;;;;;;;;;;;;;24.25;64.22;101449.31;5013885;28;19940;-82
2023/05/25 10:31:37;;;;;;;;;;;;;;;24.85;62.57;101497.41;5005614;28;20338;-85
2023/05/25 10:34:03;;;;;;;;;;;;;;;25.02;62.09;101490.47;4990824;28;19972;-84
2023/05/25 10:36:32;;;;;;;;;;;;;;;25.23;61.30;101499.50;5001563;28;20301;-82
2023/05/25 10:38:59;;;;;;;;;;;;;;;25.31;58.49;101494.66;4999676;28;19925;-86
2023/05/25 10:41:26;;;;;;;;;;;;;;;25.69;58.30;101503.97;5016014;28;20281;-86
2023/05/25 10:43:59;;;;;;;;;;;;;;;25.62;56.68;101454.22;5002235;28;20275;-86
2023/05/25 10:46:30;;;;;;;;;;;;;;;26.01;55.29;101499.44;5016757;28;20008;-85
2023/05/25 10:49:01;;;;;;;;;;;;;;;25.99;54.85;101493.38;5019024;28;20690;-85
2023/05/25 10:51:38;;;;;;;;;;;;;;;26.11;55.18;101494.38;5018495;28;19931;-85
2023/05/25 10:54:05;;;;;;;;;;;;;;;26.38;54.53;101494.19;5017573;28;19940;-85
2023/05/25 10:56:34;;;;;;;;;;;;;;;26.27;52.65;101437.78;4997971;28;19931;-81
2023/05/25 10:59:01;;;;;;;;;;;;;;;26.62;52.68;101490.69;5004512;28;19925;-76
2023/05/25 11:01:32;;;;;;;;;;;;;;;26.86;51.28;101477.31;4993382;28;19925;-79
2023/05/25 11:04:09;;;;;;;;;;;;;;;27.02;50.04;101487.66;5000061;28;19929;-75
2023/05/25 11:06:36;;;;;;;;;;;;;;;27.19;50.39;101487.09;4994590;28;19929;-78
2023/05/25 11:09:21;;;;;;;;;;;;;;;27.44;50.06;101487.03;5015270;28;20176;-84
2023/05/25 11:11:49;;;;;;;;;;;;;;;27.52;50.07;101480.44;4999882;28;20206;-85
2023/05/25 11:14:42;;;;;;;;;;;;;;;27.45;49.87;101489.53;4979482;28;20504;-84
2023/05/25 11:17:14;;;;;;;;;;;;;;;27.50;50.14;101480.66;4992901;28;20028;-85
2023/05/25 11:19:41;;;;;;;;;;;;;;;27.59;50.53;101479.28;5000214;28;19929;-86
2023/05/25 11:22:12;;;;;;;;;;;;;;;27.64;50.18;101481.34;5008228;28;20246;-87
2023/05/25 11:24:40;;;;;;;;;;;;;;;27.69;50.64;101478.75;4994891;28;19932;-85
2023/05/25 11:27:09;;;;;;;;;;;;;;;27.76;50.31;101474.03;5019818;28;20016;-85
2023/05/25 11:29:38;;;;;;;;;;;;;;;27.77;49.94;101469.41;5018299;28;20004;-85
2023/05/25 11:32:12;;;;;;;;;;;;;;;27.76;49.60;101468.59;5017662;28;20129;-86
2023/05/25 11:34:50;;;;;;;;;;;;;;;27.40;48.80;101385.75;4978275;28;19925;-85
2023/05/25 11:37:20;;;;;;;;;;;;;;;28.13;47.95;101463.06;4997371;28;20258;-86
2023/05/25 11:39:48;;;;;;;;;;;;;;;28.13;47.52;101453.00;5003755;28;20011;-84
2023/05/25 11:42:25;;;;;;;;;;;;;;;28.36;46.99;101451.38;5019439;28;20311;-85
2023/05/25 11:44:55;;;;;;;;;;;;;;;28.23;47.24;101452.44;5003672;28;20290;-83
2023/05/25 11:47:24;;;;;;;;;;;;;;;28.47;47.56;101456.09;4987857;28;20444;-86
2023/05/25 11:49:59;;;;;;;;;;;;;;;28.30;45.84;101457.78;4998633;28;19925;-85
2023/05/25 11:52:26;;;;;;;;;;;;;;;28.17;45.71;101449.81;4995519;28;19925;-85
2023/05/25 11:54:53;;;;;;;;;;;;;;;28.33;46.44;101452.69;5008087;28;19933;-85
2023/05/25 11:57:23;;;;;;;;;;;;;;;28.71;44.95;101442.44;5017155;28;19925;-85
2023/05/25 11:59:52;;;;;;;;;;;;;;;28.77;45.63;101436.84;5009651;28;20444;-84
2023/05/25 12:02:19;;;;;;;;;;;;;;;29.03;45.39;101442.91;4992564;28;20210;-86
2023/05/25 12:05:00;;;;;;;;;;;;;;;28.96;44.58;101442.22;5007159;28;19924;-85
2023/05/25 12:07:30;;;;;;;;;;;;;;;28.55;45.19;101373.78;5005882;28;19924;-85
2023/05/25 12:10:03;;;;;;;;;;;;;;;28.88;44.08;101431.63;5010192;28;20210;-86
2023/05/25 12:12:36;;;;;;;;;;;;;;;29.07;44.17;101441.38;5013872;28;20012;-85
2023/05/25 12:15:03;;;;;;;;;;;;;;;29.06;44.08;101426.06;5021441;28;20640;-84
2023/05/25 12:17:33;;;;;;;;;;;;;;;28.75;45.03;101389.81;5006715;28;20006;-85
2023/05/25 12:20:06;;;;;;;;;;;;;;;28.74;45.93;101431.03;5026435;28;20266;-84
2023/05/25 12:22:33;;;;;;;;;;;;;;;28.57;46.79;101430.91;5024941;28;20349;-84
2023/05/25 12:25:02;;;;;;;;;;;;;;;28.62;46.97;101431.03;5016628;28;19931;-85
2023/05/25 12:27:34;;;;;;;;;;;;;;;28.65;45.82;101430.56;5012549;28;19925;-85
2023/05/25 12:30:04;;;;;;;;;;;;;;;28.93;45.67;101426.25;5019329;28;19979;-84
2023/05/25 12:32:31;;;;;;;;;;;;;;;29.19;44.61;101427.69;5008787;28;20054;-82
2023/05/25 12:35:07;;;;;;;;;;;;;;;29.13;43.87;101431.41;5018388;28;19956;-85
2023/05/25 12:37:34;;;;;;;;;;;;;;;29.24;43.20;101435.19;4994547;28;19925;-84
2023/05/25 12:40:03;;;;;;;;;;;;;;;29.19;43.68;101416.75;5006695;28;19924;-84
2023/05/25 12:42:35;;;;;;;;;;;;;;;29.43;44.11;101417.53;5019862;28;19933;-85
2023/05/25 12:45:02;;;;;;;;;;;;;;;29.29;43.49;101411.50;5019498;28;19933;-84
2023/05/25 12:47:31;;;;;;;;;;;;;;;29.53;42.81;101423.22;5013934;28;19929;-85